sensor_id;sensor_type;location;lat;lon;timestamp;P1;durP1;ratioP1;P2;durP2;ratioP2
83471;SDS011;74051;47.120;18.370;2023-12-20T00:01:16;49.28;;;17.40;;
83471;SDS011;74051;47.120;18.370;2023-12-20T00:03:43;33.53;;;14.45;;
83471;SDS011;74051;47.120;18.370;2023-12-20T00:06:09;43.15;;;16.45;;
83471;SDS011;74051;47.120;18.370;2023-12-20T00:08:36;45.67;;;16.27;;
83471;SDS011;74051;47.120;18.370;2023-12-20T00:11:03;55.10;;;16.75;;
83471;SDS011;74051;47.120;18.370;2023-12-20T00:13:30;56.38;;;16.30;;
83471;SDS011;74051;47.120;18.370;2023-12-20T00:15:56;54.05;;;14.85;;
83471;SDS011;74051;47.120;18.370;2023-12-20T00:18:23;53.38;;;16.20;;
83471;SDS011;74051;47.120;18.370;2023-12-20T00:20:49;46.15;;;15.02;;
83471;SDS011;74051;47.120;18.370;2023-12-20T00:23:16;46.05;;;16.02;;
83471;SDS011;74051;47.120;18.370;2023-12-20T00:25:42;59.42;;;17.38;;
83471;SDS011;74051;47.120;18.370;2023-12-20T00:28:08;42.85;;;14.50;;
83471;SDS011;74051;47.120;18.370;2023-12-20T00:30:35;46.63;;;16.55;;
83471;SDS011;74051;47.120;18.370;2023-12-20T00:33:02;22.85;;;9.73;;
83471;SDS011;74051;47.120;18.370;2023-12-20T00:35:28;45.75;;;15.00;;
83471;SDS011;74051;47.120;18.370;2023-12-20T00:37:54;58.97;;;16.50;;
83471;SDS011;74051;47.120;18.370;2023-12-20T00:40:21;47.35;;;15.25;;
83471;SDS011;74051;47.120;18.370;2023-12-20T00:42:48;54.55;;;16.58;;
83471;SDS011;74051;47.120;18.370;2023-12-20T00:45:14;51.20;;;17.70;;
83471;SDS011;74051;47.120;18.370;2023-12-20T00:47:41;53.05;;;16.58;;
83471;SDS011;74051;47.120;18.370;2023-12-20T00:50:08;60.47;;;18.45;;
83471;SDS011;74051;47.120;18.370;2023-12-20T00:52:36;22.95;;;8.50;;
83471;SDS011;74051;47.120;18.370;2023-12-20T00:55:03;50.08;;;16.50;;
83471;SDS011;74051;47.120;18.370;2023-12-20T00:57:30;43.95;;;15.85;;
83471;SDS011;74051;47.120;18.370;2023-12-20T00:59:57;50.03;;;16.23;;
83471;SDS011;74051;47.120;18.370;2023-12-20T01:02:23;49.20;;;14.57;;
83471;SDS011;74051;47.120;18.370;2023-12-20T01:04:50;33.55;;;11.85;;
83471;SDS011;74051;47.120;18.370;2023-12-20T01:07:16;36.85;;;12.73;;
83471;SDS011;74051;47.120;18.370;2023-12-20T01:09:42;48.53;;;16.58;;
83471;SDS011;74051;47.120;18.370;2023-12-20T01:12:08;71.82;;;17.88;;
83471;SDS011;74051;47.120;18.370;2023-12-20T01:14:35;48.72;;;16.73;;
83471;SDS011;74051;47.120;18.370;2023-12-20T01:17:01;54.67;;;16.95;;
83471;SDS011;74051;47.120;18.370;2023-12-20T01:19:28;50.95;;;16.98;;
83471;SDS011;74051;47.120;18.370;2023-12-20T01:21:55;60.28;;;16.40;;
83471;SDS011;74051;47.120;18.370;2023-12-20T01:24:21;44.13;;;16.75;;
83471;SDS011;74051;47.120;18.370;2023-12-20T01:26:48;49.92;;;16.25;;
83471;SDS011;74051;47.120;18.370;2023-12-20T01:29:14;45.92;;;16.48;;
83471;SDS011;74051;47.120;18.370;2023-12-20T01:31:41;54.97;;;17.45;;
83471;SDS011;74051;47.120;18.370;2023-12-20T01:34:08;49.90;;;16.17;;
83471;SDS011;74051;47.120;18.370;2023-12-20T01:36:34;42.03;;;16.10;;
83471;SDS011;74051;47.120;18.370;2023-12-20T01:39:01;51.42;;;16.80;;
83471;SDS011;74051;47.120;18.370;2023-12-20T01:41:27;56.70;;;15.73;;
83471;SDS011;74051;47.120;18.370;2023-12-20T01:43:53;41.08;;;14.45;;
83471;SDS011;74051;47.120;18.370;2023-12-20T01:46:20;52.15;;;17.67;;
83471;SDS011;74051;47.120;18.370;2023-12-20T01:48:47;53.72;;;18.00;;
83471;SDS011;74051;47.120;18.370;2023-12-20T01:51:14;50.20;;;16.90;;
83471;SDS011;74051;47.120;18.370;2023-12-20T01:53:41;41.22;;;14.85;;
83471;SDS011;74051;47.120;18.370;2023-12-20T01:56:08;49.85;;;16.38;;
83471;SDS011;74051;47.120;18.370;2023-12-20T01:58:37;24.38;;;9.55;;
83471;SDS011;74051;47.120;18.370;2023-12-20T02:01:09;37.45;;;11.25;;
83471;SDS011;74051;47.120;18.370;2023-12-20T02:03:40;58.22;;;18.40;;
83471;SDS011;74051;47.120;18.370;2023-12-20T02:06:07;45.15;;;15.20;;
83471;SDS011;74051;47.120;18.370;2023-12-20T02:08:35;49.05;;;17.10;;
83471;SDS011;74051;47.120;18.370;2023-12-20T02:11:02;55.35;;;17.50;;
83471;SDS011;74051;47.120;18.370;2023-12-20T02:13:28;65.07;;;19.77;;
83471;SDS011;74051;47.120;18.370;2023-12-20T02:15:56;49.50;;;16.77;;
83471;SDS011;74051;47.120;18.370;2023-12-20T02:18:22;48.08;;;16.35;;
83471;SDS011;74051;47.120;18.370;2023-12-20T02:20:49;14.68;;;9.27;;
83471;SDS011;74051;47.120;18.370;2023-12-20T02:23:16;62.45;;;17.70;;
83471;SDS011;74051;47.120;18.370;2023-12-20T02:25:42;50.90;;;16.83;;
83471;SDS011;74051;47.120;18.370;2023-12-20T02:28:09;53.20;;;16.83;;
83471;SDS011;74051;47.120;18.370;2023-12-20T02:30:36;75.25;;;17.52;;
83471;SDS011;74051;47.120;18.370;2023-12-20T02:33:03;48.10;;;14.43;;
83471;SDS011;74051;47.120;18.370;2023-12-20T02:35:32;66.22;;;19.52;;
83471;SDS011;74051;47.120;18.370;2023-12-20T02:37:58;60.42;;;17.73;;
83471;SDS011;74051;47.120;18.370;2023-12-20T02:40:25;47.83;;;15.95;;
83471;SDS011;74051;47.120;18.370;2023-12-20T02:42:51;47.72;;;17.08;;
83471;SDS011;74051;47.120;18.370;2023-12-20T02:45:17;53.42;;;17.38;;
83471;SDS011;74051;47.120;18.370;2023-12-20T02:47:44;53.80;;;16.02;;
83471;SDS011;74051;47.120;18.370;2023-12-20T02:50:10;53.83;;;17.00;;
83471;SDS011;74051;47.120;18.370;2023-12-20T02:52:37;43.58;;;16.40;;
83471;SDS011;74051;47.120;18.370;2023-12-20T02:55:03;59.80;;;18.85;;
83471;SDS011;74051;47.120;18.370;2023-12-20T02:57:30;51.42;;;18.30;;
83471;SDS011;74051;47.120;18.370;2023-12-20T02:59:56;50.35;;;17.95;;
83471;SDS011;74051;47.120;18.370;2023-12-20T03:02:22;44.67;;;15.93;;
83471;SDS011;74051;47.120;18.370;2023-12-20T03:04:49;50.28;;;16.95;;
83471;SDS011;74051;47.120;18.370;2023-12-20T03:07:15;58.83;;;17.20;;
83471;SDS011;74051;47.120;18.370;2023-12-20T03:09:42;63.28;;;19.05;;
83471;SDS011;74051;47.120;18.370;2023-12-20T03:12:08;46.42;;;16.60;;
83471;SDS011;74051;47.120;18.370;2023-12-20T03:14:34;50.78;;;17.98;;
83471;SDS011;74051;47.120;18.370;2023-12-20T03:17:01;53.58;;;18.42;;
83471;SDS011;74051;47.120;18.370;2023-12-20T03:19:27;43.75;;;16.40;;
83471;SDS011;74051;47.120;18.370;2023-12-20T03:21:55;42.67;;;16.45;;
83471;SDS011;74051;47.120;18.370;2023-12-20T03:24:21;42.03;;;15.95;;
83471;SDS011;74051;47.120;18.370;2023-12-20T03:26:47;58.63;;;19.45;;
83471;SDS011;74051;47.120;18.370;2023-12-20T03:29:14;48.03;;;17.35;;
83471;SDS011;74051;47.120;18.370;2023-12-20T03:31:40;55.20;;;19.80;;
83471;SDS011;74051;47.120;18.370;2023-12-20T03:34:07;53.72;;;19.00;;
83471;SDS011;74051;47.120;18.370;2023-12-20T03:36:33;68.38;;;20.08;;
83471;SDS011;74051;47.120;18.370;2023-12-20T03:38:59;62.42;;;19.95;;
83471;SDS011;74051;47.120;18.370;2023-12-20T03:41:25;63.45;;;20.88;;
83471;SDS011;74051;47.120;18.370;2023-12-20T03:43:52;68.32;;;21.02;;
83471;SDS011;74051;47.120;18.370;2023-12-20T03:46:18;46.58;;;16.58;;
83471;SDS011;74051;47.120;18.370;2023-12-20T03:48:44;45.90;;;17.00;;
83471;SDS011;74051;47.120;18.370;2023-12-20T03:51:11;53.00;;;19.13;;
83471;SDS011;74051;47.120;18.370;2023-12-20T03:53:38;53.80;;;17.92;;
83471;SDS011;74051;47.120;18.370;2023-12-20T03:56:06;42.28;;;15.00;;
83471;SDS011;74051;47.120;18.370;2023-12-20T03:58:32;45.47;;;18.10;;
83471;SDS011;74051;47.120;18.370;2023-12-20T04:00:58;38.95;;;16.45;;
83471;SDS011;74051;47.120;18.370;2023-12-20T04:03:25;52.40;;;18.63;;
83471;SDS011;74051;47.120;18.370;2023-12-20T04:05:52;52.85;;;17.13;;
83471;SDS011;74051;47.120;18.370;2023-12-20T04:08:18;49.20;;;19.33;;
83471;SDS011;74051;47.120;18.370;2023-12-20T04:10:44;55.30;;;20.17;;
83471;SDS011;74051;47.120;18.370;2023-12-20T04:13:10;42.72;;;16.05;;
83471;SDS011;74051;47.120;18.370;2023-12-20T04:15:37;47.78;;;17.75;;
83471;SDS011;74051;47.120;18.370;2023-12-20T04:18:03;46.20;;;17.83;;
83471;SDS011;74051;47.120;18.370;2023-12-20T04:20:30;42.65;;;16.98;;
83471;SDS011;74051;47.120;18.370;2023-12-20T04:22:56;14.63;;;5.57;;
83471;SDS011;74051;47.120;18.370;2023-12-20T04:25:23;39.40;;;14.25;;
83471;SDS011;74051;47.120;18.370;2023-12-20T04:27:49;50.30;;;19.52;;
83471;SDS011;74051;47.120;18.370;2023-12-20T04:30:15;56.03;;;18.05;;
83471;SDS011;74051;47.120;18.370;2023-12-20T04:32:42;45.45;;;17.40;;
83471;SDS011;74051;47.120;18.370;2023-12-20T04:35:08;46.65;;;17.17;;
83471;SDS011;74051;47.120;18.370;2023-12-20T04:37:34;47.92;;;17.40;;
83471;SDS011;74051;47.120;18.370;2023-12-20T04:40:00;45.97;;;17.42;;
83471;SDS011;74051;47.120;18.370;2023-12-20T04:42:27;44.58;;;17.73;;
83471;SDS011;74051;47.120;18.370;2023-12-20T04:44:54;44.92;;;15.88;;
83471;SDS011;74051;47.120;18.370;2023-12-20T04:47:20;52.88;;;18.70;;
83471;SDS011;74051;47.120;18.370;2023-12-20T04:49:46;51.40;;;17.23;;
83471;SDS011;74051;47.120;18.370;2023-12-20T04:52:12;40.75;;;15.73;;
83471;SDS011;74051;47.120;18.370;2023-12-20T04:54:39;42.58;;;16.02;;
83471;SDS011;74051;47.120;18.370;2023-12-20T04:57:05;46.42;;;17.08;;
83471;SDS011;74051;47.120;18.370;2023-12-20T04:59:32;52.63;;;16.63;;
83471;SDS011;74051;47.120;18.370;2023-12-20T05:01:58;43.05;;;16.60;;
83471;SDS011;74051;47.120;18.370;2023-12-20T05:04:25;53.05;;;17.52;;
83471;SDS011;74051;47.120;18.370;2023-12-20T05:06:51;43.75;;;15.65;;
83471;SDS011;74051;47.120;18.370;2023-12-20T05:09:18;33.25;;;12.38;;
83471;SDS011;74051;47.120;18.370;2023-12-20T05:11:44;41.67;;;15.60;;
83471;SDS011;74051;47.120;18.370;2023-12-20T05:14:10;39.20;;;14.55;;
83471;SDS011;74051;47.120;18.370;2023-12-20T05:16:36;51.00;;;16.80;;
83471;SDS011;74051;47.120;18.370;2023-12-20T05:19:03;30.77;;;12.52;;
83471;SDS011;74051;47.120;18.370;2023-12-20T05:21:32;51.08;;;18.42;;
83471;SDS011;74051;47.120;18.370;2023-12-20T05:23:59;44.55;;;15.32;;
83471;SDS011;74051;47.120;18.370;2023-12-20T05:26:26;49.78;;;16.95;;
83471;SDS011;74051;47.120;18.370;2023-12-20T05:28:52;57.10;;;17.95;;
83471;SDS011;74051;47.120;18.370;2023-12-20T05:31:18;19.90;;;9.55;;
83471;SDS011;74051;47.120;18.370;2023-12-20T05:33:45;51.60;;;15.43;;
83471;SDS011;74051;47.120;18.370;2023-12-20T05:36:11;57.28;;;17.98;;
83471;SDS011;74051;47.120;18.370;2023-12-20T05:38:39;45.70;;;15.95;;
83471;SDS011;74051;47.120;18.370;2023-12-20T05:41:06;57.70;;;18.20;;
83471;SDS011;74051;47.120;18.370;2023-12-20T05:43:32;48.58;;;16.95;;
83471;SDS011;74051;47.120;18.370;2023-12-20T05:45:59;45.50;;;17.45;;
83471;SDS011;74051;47.120;18.370;2023-12-20T05:48:26;49.13;;;16.15;;
83471;SDS011;74051;47.120;18.370;2023-12-20T05:50:52;48.40;;;16.60;;
83471;SDS011;74051;47.120;18.370;2023-12-20T05:53:19;58.67;;;16.85;;
83471;SDS011;74051;47.120;18.370;2023-12-20T05:55:45;50.65;;;16.48;;
83471;SDS011;74051;47.120;18.370;2023-12-20T05:58:12;46.65;;;15.43;;
83471;SDS011;74051;47.120;18.370;2023-12-20T06:00:38;31.13;;;11.13;;
83471;SDS011;74051;47.120;18.370;2023-12-20T06:03:05;40.75;;;14.70;;
83471;SDS011;74051;47.120;18.370;2023-12-20T06:05:31;47.67;;;15.82;;
83471;SDS011;74051;47.120;18.370;2023-12-20T06:07:58;46.97;;;16.90;;
83471;SDS011;74051;47.120;18.370;2023-12-20T06:10:27;35.72;;;13.35;;
83471;SDS011;74051;47.120;18.370;2023-12-20T06:12:53;57.42;;;13.82;;
83471;SDS011;74051;47.120;18.370;2023-12-20T06:15:19;63.35;;;15.98;;
83471;SDS011;74051;47.120;18.370;2023-12-20T06:17:46;54.85;;;15.85;;
83471;SDS011;74051;47.120;18.370;2023-12-20T06:20:13;74.60;;;15.45;;
83471;SDS011;74051;47.120;18.370;2023-12-20T06:22:39;44.65;;;13.95;;
83471;SDS011;74051;47.120;18.370;2023-12-20T06:25:06;53.15;;;17.63;;
83471;SDS011;74051;47.120;18.370;2023-12-20T06:27:33;45.63;;;15.93;;
83471;SDS011;74051;47.120;18.370;2023-12-20T06:29:59;50.53;;;16.42;;
83471;SDS011;74051;47.120;18.370;2023-12-20T06:32:25;60.40;;;17.15;;
83471;SDS011;74051;47.120;18.370;2023-12-20T06:34:51;52.08;;;16.58;;
83471;SDS011;74051;47.120;18.370;2023-12-20T06:37:17;62.95;;;16.90;;
83471;SDS011;74051;47.120;18.370;2023-12-20T06:39:44;59.42;;;18.75;;
83471;SDS011;74051;47.120;18.370;2023-12-20T06:42:10;49.42;;;18.02;;
83471;SDS011;74051;47.120;18.370;2023-12-20T06:44:37;57.78;;;19.48;;
83471;SDS011;74051;47.120;18.370;2023-12-20T06:47:04;49.80;;;18.25;;
83471;SDS011;74051;47.120;18.370;2023-12-20T06:49:31;42.25;;;16.60;;
83471;SDS011;74051;47.120;18.370;2023-12-20T06:51:57;45.00;;;17.75;;
83471;SDS011;74051;47.120;18.370;2023-12-20T06:54:24;50.92;;;20.15;;
83471;SDS011;74051;47.120;18.370;2023-12-20T06:56:50;53.97;;;17.70;;
83471;SDS011;74051;47.120;18.370;2023-12-20T06:59:17;53.17;;;18.13;;
83471;SDS011;74051;47.120;18.370;2023-12-20T07:01:47;47.17;;;17.13;;
83471;SDS011;74051;47.120;18.370;2023-12-20T07:04:14;41.95;;;16.88;;
83471;SDS011;74051;47.120;18.370;2023-12-20T07:06:41;44.83;;;15.85;;
83471;SDS011;74051;47.120;18.370;2023-12-20T07:09:08;50.60;;;17.05;;
83471;SDS011;74051;47.120;18.370;2023-12-20T07:11:34;49.72;;;17.52;;
83471;SDS011;74051;47.120;18.370;2023-12-20T07:14:00;46.40;;;17.13;;
83471;SDS011;74051;47.120;18.370;2023-12-20T07:16:27;46.50;;;16.65;;
83471;SDS011;74051;47.120;18.370;2023-12-20T07:18:53;45.63;;;16.30;;
83471;SDS011;74051;47.120;18.370;2023-12-20T07:21:19;40.05;;;15.15;;
83471;SDS011;74051;47.120;18.370;2023-12-20T07:23:46;37.15;;;14.65;;
83471;SDS011;74051;47.120;18.370;2023-12-20T07:26:12;52.08;;;15.73;;
83471;SDS011;74051;47.120;18.370;2023-12-20T07:28:39;44.40;;;14.45;;
83471;SDS011;74051;47.120;18.370;2023-12-20T07:31:06;35.60;;;13.48;;
83471;SDS011;74051;47.120;18.370;2023-12-20T07:33:33;44.67;;;16.10;;
83471;SDS011;74051;47.120;18.370;2023-12-20T07:35:59;36.33;;;13.95;;
83471;SDS011;74051;47.120;18.370;2023-12-20T07:38:27;38.58;;;15.95;;
83471;SDS011;74051;47.120;18.370;2023-12-20T07:40:53;45.53;;;15.82;;
83471;SDS011;74051;47.120;18.370;2023-12-20T07:43:19;35.80;;;13.77;;
83471;SDS011;74051;47.120;18.370;2023-12-20T07:45:45;35.58;;;14.40;;
83471;SDS011;74051;47.120;18.370;2023-12-20T07:48:12;46.25;;;15.15;;
83471;SDS011;74051;47.120;18.370;2023-12-20T07:50:38;46.50;;;15.05;;
83471;SDS011;74051;47.120;18.370;2023-12-20T07:53:04;42.03;;;15.82;;
83471;SDS011;74051;47.120;18.370;2023-12-20T07:55:31;54.28;;;15.48;;
83471;SDS011;74051;47.120;18.370;2023-12-20T07:57:57;49.30;;;16.55;;
83471;SDS011;74051;47.120;18.370;2023-12-20T08:00:24;46.42;;;16.60;;
83471;SDS011;74051;47.120;18.370;2023-12-20T08:02:50;43.70;;;15.60;;
83471;SDS011;74051;47.120;18.370;2023-12-20T08:05:17;46.72;;;16.00;;
83471;SDS011;74051;47.120;18.370;2023-12-20T08:07:43;39.58;;;14.82;;
83471;SDS011;74051;47.120;18.370;2023-12-20T08:10:10;33.78;;;13.68;;
83471;SDS011;74051;47.120;18.370;2023-12-20T08:12:37;46.53;;;15.63;;
83471;SDS011;74051;47.120;18.370;2023-12-20T08:15:05;37.60;;;15.18;;
83471;SDS011;74051;47.120;18.370;2023-12-20T08:17:32;41.17;;;14.00;;
83471;SDS011;74051;47.120;18.370;2023-12-20T08:19:58;39.33;;;14.23;;
83471;SDS011;74051;47.120;18.370;2023-12-20T08:22:26;35.05;;;14.45;;
83471;SDS011;74051;47.120;18.370;2023-12-20T08:24:52;38.22;;;13.93;;
83471;SDS011;74051;47.120;18.370;2023-12-20T08:27:20;38.85;;;12.90;;
83471;SDS011;74051;47.120;18.370;2023-12-20T08:29:46;39.67;;;15.15;;
83471;SDS011;74051;47.120;18.370;2023-12-20T08:32:13;50.75;;;16.17;;
83471;SDS011;74051;47.120;18.370;2023-12-20T08:34:40;45.20;;;14.70;;
83471;SDS011;74051;47.120;18.370;2023-12-20T08:37:06;37.78;;;14.65;;
83471;SDS011;74051;47.120;18.370;2023-12-20T08:39:33;43.35;;;16.45;;
83471;SDS011;74051;47.120;18.370;2023-12-20T08:41:59;40.13;;;14.65;;
83471;SDS011;74051;47.120;18.370;2023-12-20T08:44:26;37.03;;;14.90;;
83471;SDS011;74051;47.120;18.370;2023-12-20T08:46:52;35.42;;;16.25;;
83471;SDS011;74051;47.120;18.370;2023-12-20T08:49:19;31.70;;;13.05;;
83471;SDS011;74051;47.120;18.370;2023-12-20T08:51:45;37.20;;;15.40;;
83471;SDS011;74051;47.120;18.370;2023-12-20T08:54:12;40.80;;;14.65;;
83471;SDS011;74051;47.120;18.370;2023-12-20T08:56:39;33.92;;;14.13;;
83471;SDS011;74051;47.120;18.370;2023-12-20T08:59:05;40.35;;;13.07;;
83471;SDS011;74051;47.120;18.370;2023-12-20T09:01:31;32.00;;;12.82;;
83471;SDS011;74051;47.120;18.370;2023-12-20T09:03:58;36.97;;;13.10;;
83471;SDS011;74051;47.120;18.370;2023-12-20T09:06:24;34.97;;;12.73;;
83471;SDS011;74051;47.120;18.370;2023-12-20T09:08:51;35.92;;;13.05;;
83471;SDS011;74051;47.120;18.370;2023-12-20T09:11:17;38.60;;;12.50;;
83471;SDS011;74051;47.120;18.370;2023-12-20T09:13:44;36.83;;;13.80;;
83471;SDS011;74051;47.120;18.370;2023-12-20T09:16:10;39.45;;;12.73;;
83471;SDS011;74051;47.120;18.370;2023-12-20T09:18:36;41.38;;;14.65;;
83471;SDS011;74051;47.120;18.370;2023-12-20T09:21:03;31.58;;;12.60;;
83471;SDS011;74051;47.120;18.370;2023-12-20T09:23:29;36.08;;;12.82;;
83471;SDS011;74051;47.120;18.370;2023-12-20T09:25:56;35.22;;;14.25;;
83471;SDS011;74051;47.120;18.370;2023-12-20T09:28:22;38.28;;;13.85;;
83471;SDS011;74051;47.120;18.370;2023-12-20T09:30:48;34.13;;;11.68;;
83471;SDS011;74051;47.120;18.370;2023-12-20T09:33:15;28.73;;;12.27;;
83471;SDS011;74051;47.120;18.370;2023-12-20T09:35:42;29.77;;;13.23;;
83471;SDS011;74051;47.120;18.370;2023-12-20T09:38:08;33.53;;;12.07;;
83471;SDS011;74051;47.120;18.370;2023-12-20T09:40:35;26.40;;;12.25;;
83471;SDS011;74051;47.120;18.370;2023-12-20T09:43:15;30.60;;;11.95;;
83471;SDS011;74051;47.120;18.370;2023-12-20T09:45:46;24.02;;;11.10;;
83471;SDS011;74051;47.120;18.370;2023-12-20T09:48:13;29.50;;;11.52;;
83471;SDS011;74051;47.120;18.370;2023-12-20T09:50:44;30.48;;;11.15;;
83471;SDS011;74051;47.120;18.370;2023-12-20T09:53:11;28.08;;;11.48;;
83471;SDS011;74051;47.120;18.370;2023-12-20T09:55:41;26.38;;;11.23;;
83471;SDS011;74051;47.120;18.370;2023-12-20T09:58:08;35.50;;;12.38;;
83471;SDS011;74051;47.120;18.370;2023-12-20T10:00:35;22.33;;;10.55;;
83471;SDS011;74051;47.120;18.370;2023-12-20T10:03:01;30.50;;;12.00;;
83471;SDS011;74051;47.120;18.370;2023-12-20T10:05:31;30.30;;;11.77;;
83471;SDS011;74051;47.120;18.370;2023-12-20T10:07:58;24.42;;;9.57;;
83471;SDS011;74051;47.120;18.370;2023-12-20T10:10:26;37.30;;;12.07;;
83471;SDS011;74051;47.120;18.370;2023-12-20T10:15:36;31.38;;;12.75;;
83471;SDS011;74051;47.120;18.370;2023-12-20T10:18:03;33.80;;;12.85;;
83471;SDS011;74051;47.120;18.370;2023-12-20T10:20:30;37.47;;;13.82;;
83471;SDS011;74051;47.120;18.370;2023-12-20T10:22:57;35.85;;;13.60;;
83471;SDS011;74051;47.120;18.370;2023-12-20T10:25:24;34.88;;;13.07;;
83471;SDS011;74051;47.120;18.370;2023-12-20T10:30:35;27.73;;;12.57;;
83471;SDS011;74051;47.120;18.370;2023-12-20T10:33:01;30.20;;;12.40;;
83471;SDS011;74051;47.120;18.370;2023-12-20T10:35:28;31.38;;;13.35;;
83471;SDS011;74051;47.120;18.370;2023-12-20T10:37:55;33.15;;;13.50;;
83471;SDS011;74051;47.120;18.370;2023-12-20T10:40:22;31.50;;;13.30;;
83471;SDS011;74051;47.120;18.370;2023-12-20T10:42:49;33.03;;;13.48;;
83471;SDS011;74051;47.120;18.370;2023-12-20T10:45:17;29.08;;;13.15;;
83471;SDS011;74051;47.120;18.370;2023-12-20T10:47:45;25.25;;;11.75;;
83471;SDS011;74051;47.120;18.370;2023-12-20T10:50:13;30.88;;;13.13;;
83471;SDS011;74051;47.120;18.370;2023-12-20T10:52:39;25.50;;;12.65;;
83471;SDS011;74051;47.120;18.370;2023-12-20T10:55:07;27.95;;;13.10;;
83471;SDS011;74051;47.120;18.370;2023-12-20T10:57:34;27.08;;;12.63;;
83471;SDS011;74051;47.120;18.370;2023-12-20T11:00:02;30.85;;;13.65;;
83471;SDS011;74051;47.120;18.370;2023-12-20T11:02:32;23.50;;;10.93;;
83471;SDS011;74051;47.120;18.370;2023-12-20T11:05:03;27.08;;;12.13;;
83471;SDS011;74051;47.120;18.370;2023-12-20T11:07:52;32.55;;;14.07;;
83471;SDS011;74051;47.120;18.370;2023-12-20T11:10:25;27.00;;;12.52;;
83471;SDS011;74051;47.120;18.370;2023-12-20T11:13:12;31.50;;;15.73;;
83471;SDS011;74051;47.120;18.370;2023-12-20T11:15:46;28.55;;;12.93;;
83471;SDS011;74051;47.120;18.370;2023-12-20T11:18:13;27.63;;;13.77;;
83471;SDS011;74051;47.120;18.370;2023-12-20T11:20:41;23.25;;;11.68;;
83471;SDS011;74051;47.120;18.370;2023-12-20T11:23:08;25.13;;;12.65;;
83471;SDS011;74051;47.120;18.370;2023-12-20T11:25:54;25.38;;;12.30;;
83471;SDS011;74051;47.120;18.370;2023-12-20T11:28:22;26.88;;;12.80;;
83471;SDS011;74051;47.120;18.370;2023-12-20T11:30:51;24.48;;;11.85;;
83471;SDS011;74051;47.120;18.370;2023-12-20T11:33:22;24.58;;;11.73;;
83471;SDS011;74051;47.120;18.370;2023-12-20T11:35:50;21.77;;;10.93;;
83471;SDS011;74051;47.120;18.370;2023-12-20T11:38:19;23.00;;;10.98;;
83471;SDS011;74051;47.120;18.370;2023-12-20T11:40:47;21.40;;;10.75;;
83471;SDS011;74051;47.120;18.370;2023-12-20T11:46:04;18.83;;;9.52;;
83471;SDS011;74051;47.120;18.370;2023-12-20T11:48:32;19.10;;;9.10;;
83471;SDS011;74051;47.120;18.370;2023-12-20T11:51:00;13.23;;;6.60;;
83471;SDS011;74051;47.120;18.370;2023-12-20T11:53:27;11.45;;;6.15;;
83471;SDS011;74051;47.120;18.370;2023-12-20T11:55:54;10.75;;;6.43;;
83471;SDS011;74051;47.120;18.370;2023-12-20T11:58:20;11.75;;;5.45;;
83471;SDS011;74051;47.120;18.370;2023-12-20T12:00:48;11.80;;;6.10;;
83471;SDS011;74051;47.120;18.370;2023-12-20T12:03:15;10.05;;;4.18;;
83471;SDS011;74051;47.120;18.370;2023-12-20T12:05:42;9.65;;;5.00;;
83471;SDS011;74051;47.120;18.370;2023-12-20T12:08:08;4.60;;;2.60;;
83471;SDS011;74051;47.120;18.370;2023-12-20T12:10:35;3.05;;;1.80;;
83471;SDS011;74051;47.120;18.370;2023-12-20T12:13:02;4.10;;;1.95;;
83471;SDS011;74051;47.120;18.370;2023-12-20T12:15:29;5.80;;;2.30;;
83471;SDS011;74051;47.120;18.370;2023-12-20T12:17:56;4.10;;;2.22;;
83471;SDS011;74051;47.120;18.370;2023-12-20T12:20:23;4.30;;;2.30;;
83471;SDS011;74051;47.120;18.370;2023-12-20T12:23:03;4.90;;;2.58;;
83471;SDS011;74051;47.120;18.370;2023-12-20T12:25:31;3.13;;;2.08;;
83471;SDS011;74051;47.120;18.370;2023-12-20T12:27:58;3.63;;;2.47;;
83471;SDS011;74051;47.120;18.370;2023-12-20T12:30:25;4.75;;;2.65;;
83471;SDS011;74051;47.120;18.370;2023-12-20T12:32:52;3.35;;;2.08;;
83471;SDS011;74051;47.120;18.370;2023-12-20T12:35:19;4.45;;;2.47;;
83471;SDS011;74051;47.120;18.370;2023-12-20T12:37:46;4.18;;;2.30;;
83471;SDS011;74051;47.120;18.370;2023-12-20T12:40:13;4.55;;;2.85;;
83471;SDS011;74051;47.120;18.370;2023-12-20T12:42:40;4.43;;;2.50;;
83471;SDS011;74051;47.120;18.370;2023-12-20T12:45:08;4.15;;;2.40;;
83471;SDS011;74051;47.120;18.370;2023-12-20T12:47:35;4.80;;;2.95;;
83471;SDS011;74051;47.120;18.370;2023-12-20T12:50:02;4.68;;;2.92;;
83471;SDS011;74051;47.120;18.370;2023-12-20T12:52:30;3.90;;;2.70;;
83471;SDS011;74051;47.120;18.370;2023-12-20T12:54:57;4.03;;;2.60;;
83471;SDS011;74051;47.120;18.370;2023-12-20T12:57:23;4.93;;;2.80;;
83471;SDS011;74051;47.120;18.370;2023-12-20T12:59:50;4.40;;;2.72;;
83471;SDS011;74051;47.120;18.370;2023-12-20T13:02:16;4.00;;;2.72;;
83471;SDS011;74051;47.120;18.370;2023-12-20T13:04:42;6.72;;;3.45;;
83471;SDS011;74051;47.120;18.370;2023-12-20T13:07:09;10.18;;;5.00;;
83471;SDS011;74051;47.120;18.370;2023-12-20T13:09:39;5.75;;;3.58;;
83471;SDS011;74051;47.120;18.370;2023-12-20T13:12:06;4.38;;;2.40;;
83471;SDS011;74051;47.120;18.370;2023-12-20T13:14:33;5.00;;;3.00;;
83471;SDS011;74051;47.120;18.370;2023-12-20T13:17:01;5.43;;;3.40;;
83471;SDS011;74051;47.120;18.370;2023-12-20T13:19:28;5.72;;;2.75;;
83471;SDS011;74051;47.120;18.370;2023-12-20T13:21:54;6.10;;;3.58;;
83471;SDS011;74051;47.120;18.370;2023-12-20T13:24:21;5.88;;;3.35;;
83471;SDS011;74051;47.120;18.370;2023-12-20T13:26:47;5.20;;;3.20;;
83471;SDS011;74051;47.120;18.370;2023-12-20T13:29:13;6.70;;;3.40;;
83471;SDS011;74051;47.120;18.370;2023-12-20T13:31:40;8.77;;;4.20;;
83471;SDS011;74051;47.120;18.370;2023-12-20T13:34:06;6.85;;;3.72;;
83471;SDS011;74051;47.120;18.370;2023-12-20T13:36:33;7.32;;;3.55;;
83471;SDS011;74051;47.120;18.370;2023-12-20T13:38:59;7.88;;;3.28;;
83471;SDS011;74051;47.120;18.370;2023-12-20T13:41:26;7.82;;;3.75;;
83471;SDS011;74051;47.120;18.370;2023-12-20T13:43:52;6.60;;;3.25;;
83471;SDS011;74051;47.120;18.370;2023-12-20T13:46:20;4.53;;;3.05;;
83471;SDS011;74051;47.120;18.370;2023-12-20T13:48:46;3.85;;;2.85;;
83471;SDS011;74051;47.120;18.370;2023-12-20T13:51:12;6.50;;;3.13;;
83471;SDS011;74051;47.120;18.370;2023-12-20T13:53:39;5.00;;;2.75;;
83471;SDS011;74051;47.120;18.370;2023-12-20T13:56:05;4.85;;;2.53;;
83471;SDS011;74051;47.120;18.370;2023-12-20T13:58:32;3.63;;;2.38;;
83471;SDS011;74051;47.120;18.370;2023-12-20T14:00:58;4.88;;;3.10;;
83471;SDS011;74051;47.120;18.370;2023-12-20T14:03:25;4.38;;;2.95;;
83471;SDS011;74051;47.120;18.370;2023-12-20T14:05:51;3.83;;;2.88;;
83471;SDS011;74051;47.120;18.370;2023-12-20T14:08:17;4.32;;;2.40;;
83471;SDS011;74051;47.120;18.370;2023-12-20T14:10:44;3.83;;;2.58;;
83471;SDS011;74051;47.120;18.370;2023-12-20T14:13:10;4.95;;;2.40;;
83471;SDS011;74051;47.120;18.370;2023-12-20T14:15:36;4.20;;;2.83;;
83471;SDS011;74051;47.120;18.370;2023-12-20T14:18:06;5.82;;;2.40;;
83471;SDS011;74051;47.120;18.370;2023-12-20T14:20:34;4.35;;;2.70;;